createdAt,value
2018-04-06T00:01:29.022Z,1.40
2018-04-06T00:03:55.541Z,1.40
2018-04-06T00:06:21.783Z,1.40
2018-04-06T00:08:49.679Z,1.40
2018-04-06T00:11:16.632Z,1.30
2018-04-06T00:13:45.473Z,1.30
2018-04-06T00:16:11.678Z,1.30
2018-04-06T00:18:39.293Z,1.30
2018-04-06T00:21:05.510Z,1.30
2018-04-06T00:23:31.773Z,1.30
2018-04-06T00:25:58.694Z,1.30
2018-04-06T00:28:24.957Z,1.20
2018-04-06T00:30:51.183Z,1.30
2018-04-06T00:33:17.442Z,1.30
2018-04-06T00:35:43.658Z,1.30
2018-04-06T00:38:09.897Z,1.30
2018-04-06T00:40:36.169Z,1.30
2018-04-06T00:43:02.405Z,1.30
2018-04-06T00:45:29.398Z,1.20
2018-04-06T00:47:55.596Z,1.20
2018-04-06T00:50:21.954Z,1.20
2018-04-06T00:52:48.189Z,1.10
2018-04-06T00:55:14.862Z,1.10
2018-04-06T00:57:41.103Z,1.10
2018-04-06T01:00:08.074Z,1.10
2018-04-06T01:02:34.284Z,1.10
2018-04-06T01:05:01.281Z,1.10
2018-04-06T01:07:27.478Z,1.00
2018-04-06T01:09:53.757Z,1.00
2018-04-06T01:12:19.961Z,1.00
2018-04-06T01:14:46.141Z,1.00
2018-04-06T01:17:13.057Z,1.10
2018-04-06T01:19:40.041Z,1.10
2018-04-06T01:22:06.328Z,1.10
2018-04-06T01:24:32.496Z,1.10
2018-04-06T01:26:59.492Z,1.00
2018-04-06T01:29:26.431Z,1.00
2018-04-06T01:31:52.686Z,1.00
2018-04-06T01:34:18.914Z,0.90
2018-04-06T01:36:47.853Z,0.90
2018-04-06T01:39:14.069Z,1.00
2018-04-06T01:41:42.184Z,0.90
2018-04-06T01:44:08.392Z,0.90
2018-04-06T01:46:34.666Z,0.80
2018-04-06T01:49:00.874Z,0.80
2018-04-06T01:51:27.149Z,0.70
2018-04-06T01:53:54.089Z,0.60
2018-04-06T01:56:22.952Z,0.60
2018-04-06T01:58:49.117Z,0.60
2018-04-06T02:01:16.093Z,0.70
2018-04-06T02:03:42.333Z,0.70
2018-04-06T02:06:08.602Z,0.60
2018-04-06T02:08:35.560Z,0.60
2018-04-06T02:11:02.526Z,0.60
2018-04-06T02:13:28.756Z,0.50
2018-04-06T02:15:55.037Z,0.50
2018-04-06T02:18:22.260Z,0.50
2018-04-06T02:20:48.564Z,0.40
2018-04-06T02:23:16.152Z,0.40
2018-04-06T02:25:42.409Z,0.30
2018-04-06T02:28:10.301Z,0.30
2018-04-06T02:30:37.326Z,0.30
2018-04-06T02:33:03.587Z,0.30
2018-04-06T02:35:29.786Z,0.30
2018-04-06T02:37:56.750Z,0.40
2018-04-06T02:40:22.945Z,0.40
2018-04-06T02:42:49.199Z,0.40
2018-04-06T02:45:17.375Z,0.40
2018-04-06T02:47:44.334Z,0.50
2018-04-06T02:50:10.558Z,0.40
2018-04-06T02:52:37.487Z,0.50
2018-04-06T02:55:04.498Z,0.50
2018-04-06T02:57:31.583Z,0.50
2018-04-06T03:00:00.274Z,0.40
2018-04-06T03:02:27.209Z,0.40
2018-04-06T03:04:54.885Z,0.40
2018-04-06T03:07:21.805Z,0.30
2018-04-06T03:09:49.841Z,0.30
2018-04-06T03:12:16.013Z,0.20
2018-04-06T03:14:42.944Z,0.20
2018-04-06T03:17:09.156Z,0.20
2018-04-06T03:19:35.430Z,0.20
2018-04-06T03:22:02.357Z,0.10
2018-04-06T03:24:28.620Z,0.00
2018-04-06T03:26:54.845Z,0.00
2018-04-06T03:29:22.245Z,-0.10
2018-04-06T03:31:48.467Z,-0.20
2018-04-06T03:34:14.722Z,-0.30
2018-04-06T03:36:40.950Z,-0.40
2018-04-06T03:39:07.388Z,-0.50
2018-04-06T03:41:33.689Z,-0.50
2018-04-06T03:43:59.858Z,-0.50
2018-04-06T03:46:28.646Z,-0.50
2018-04-06T03:48:55.541Z,-0.50
2018-04-06T03:51:22.548Z,-0.50
2018-04-06T03:53:48.739Z,-0.60
2018-04-06T03:56:15.009Z,-0.50
2018-04-06T03:58:41.230Z,-0.50
2018-04-06T04:01:08.628Z,-0.60
2018-04-06T04:03:34.839Z,-0.60
2018-04-06T04:06:02.889Z,-0.60
2018-04-06T04:08:29.053Z,-0.60
2018-04-06T04:10:55.323Z,-0.60
2018-04-06T04:13:22.261Z,-0.60
2018-04-06T04:15:48.435Z,-0.60
2018-04-06T04:18:14.657Z,-0.50
2018-04-06T04:20:40.906Z,-0.40
2018-04-06T04:23:07.129Z,-0.50
2018-04-06T04:25:33.393Z,-0.50
2018-04-06T04:28:01.018Z,-0.50
2018-04-06T04:30:27.205Z,-0.50
2018-04-06T04:32:53.481Z,-0.50
2018-04-06T04:35:19.679Z,-0.50
2018-04-06T04:37:45.932Z,-0.40
2018-04-06T04:40:12.140Z,-0.40
2018-04-06T04:42:40.314Z,-0.40
2018-04-06T04:45:06.797Z,-0.50
2018-04-06T04:47:33.090Z,-0.50
2018-04-06T04:49:59.287Z,-0.50
2018-04-06T04:52:27.609Z,-0.40
2018-04-06T04:54:53.789Z,-0.40
2018-04-06T04:57:20.789Z,-0.40
2018-04-06T04:59:47.012Z,-0.40
2018-04-06T05:02:13.269Z,-0.40
2018-04-06T05:04:39.493Z,-0.40
2018-04-06T05:07:05.765Z,-0.40
2018-04-06T05:09:31.990Z,-0.40
2018-04-06T05:12:00.022Z,-0.40
2018-04-06T05:14:26.200Z,-0.50
2018-04-06T05:16:52.501Z,-0.40
2018-04-06T05:19:19.430Z,-0.30
2018-04-06T05:21:45.606Z,-0.30
2018-04-06T05:24:12.325Z,-0.30
2018-04-06T05:26:38.575Z,-0.30
2018-04-06T05:29:04.837Z,-0.30
2018-04-06T05:31:31.051Z,-0.30
2018-04-06T05:33:57.292Z,-0.20
2018-04-06T05:36:23.505Z,-0.10
2018-04-06T05:38:51.772Z,0.00
2018-04-06T05:41:17.941Z,0.10
2018-04-06T05:43:44.212Z,0.20
2018-04-06T05:46:10.402Z,0.30
2018-04-06T05:48:37.383Z,0.50
2018-04-06T05:51:03.607Z,0.50
2018-04-06T05:53:29.813Z,0.60
2018-04-06T05:55:57.993Z,0.80
2018-04-06T05:58:29.017Z,0.80
2018-04-06T06:00:57.529Z,0.90
2018-04-06T06:03:23.774Z,0.90
2018-04-06T06:05:51.673Z,1.00
2018-04-06T06:08:17.876Z,1.00
2018-04-06T06:10:44.070Z,1.10
2018-04-06T06:13:10.981Z,1.20
2018-04-06T06:15:37.253Z,1.10
2018-04-06T06:18:03.458Z,1.20
2018-04-06T06:20:30.466Z,1.20
2018-04-06T06:22:56.665Z,1.20
2018-04-06T06:25:22.944Z,1.30
2018-04-06T06:27:49.139Z,1.30
2018-04-06T06:30:15.293Z,1.40
2018-04-06T06:32:41.565Z,1.60
2018-04-06T06:35:07.770Z,1.70
2018-04-06T06:37:33.943Z,1.80
2018-04-06T06:40:00.177Z,1.90
2018-04-06T06:42:27.537Z,2.00
2018-04-06T06:44:53.779Z,2.10
2018-04-06T06:47:21.547Z,2.20
2018-04-06T06:49:47.695Z,2.40
2018-04-06T06:52:13.970Z,2.50
2018-04-06T06:54:40.168Z,2.60
2018-04-06T06:57:07.177Z,2.80
2018-04-06T06:59:33.380Z,2.70
2018-04-06T07:01:59.621Z,2.90
2018-04-06T07:04:26.621Z,3.10
2018-04-06T07:06:53.541Z,3.20
2018-04-06T07:09:20.053Z,3.20
2018-04-06T07:11:46.225Z,3.30
2018-04-06T07:14:13.183Z,3.50
2018-04-06T07:16:39.432Z,3.50
2018-04-06T07:19:05.693Z,3.60
2018-04-06T07:21:32.645Z,3.90
2018-04-06T07:24:00.023Z,3.90
2018-04-06T07:26:27.213Z,4.00
2018-04-06T07:28:55.261Z,4.20
2018-04-06T07:31:21.477Z,4.20
2018-04-06T07:33:48.484Z,4.40
2018-04-06T07:36:14.698Z,4.40
2018-04-06T07:38:40.960Z,4.50
2018-04-06T07:41:07.169Z,4.60
2018-04-06T07:43:33.313Z,4.70
2018-04-06T07:46:01.002Z,4.80
2018-04-06T07:48:27.947Z,5.00
2018-04-06T07:50:54.926Z,5.10
2018-04-06T07:53:21.173Z,5.10
2018-04-06T07:55:47.425Z,5.20
2018-04-06T07:58:13.650Z,5.40
2018-04-06T08:00:39.910Z,5.50
2018-04-06T08:03:06.829Z,5.70
2018-04-06T08:05:34.517Z,5.80
2018-04-06T08:08:01.502Z,5.90
2018-04-06T08:10:28.920Z,5.90
2018-04-06T08:12:55.813Z,5.80
2018-04-06T08:15:22.076Z,5.80
2018-04-06T08:17:48.290Z,5.80
2018-04-06T08:20:16.537Z,5.90
2018-04-06T08:22:42.737Z,6.10
2018-04-06T08:25:09.088Z,6.00
2018-04-06T08:27:35.304Z,6.20
2018-04-06T08:30:03.294Z,6.30
2018-04-06T08:32:29.537Z,6.40
2018-04-06T08:34:55.859Z,6.60
2018-04-06T08:37:22.753Z,6.60
2018-04-06T08:39:49.690Z,6.60
2018-04-06T08:42:20.482Z,6.70
2018-04-06T08:44:46.681Z,6.60
2018-04-06T08:47:14.538Z,6.70
2018-04-06T08:49:40.701Z,6.80
2018-04-06T08:52:07.702Z,7.00
2018-04-06T08:54:33.901Z,7.00
2018-04-06T08:57:00.633Z,7.00
2018-04-06T08:59:26.814Z,7.10
2018-04-06T09:01:53.041Z,7.30
2018-04-06T09:04:19.203Z,7.40
2018-04-06T09:06:45.461Z,7.50
2018-04-06T09:09:14.258Z,7.70
2018-04-06T09:11:41.229Z,7.70
2018-04-06T09:14:07.442Z,7.70
2018-04-06T09:16:40.140Z,7.70
2018-04-06T09:19:06.393Z,7.70
2018-04-06T09:21:32.634Z,7.80
2018-04-06T09:23:58.861Z,7.90
2018-04-06T09:26:26.992Z,7.90
2018-04-06T09:28:53.186Z,8.10
2018-04-06T09:31:20.145Z,8.30
2018-04-06T09:33:47.152Z,8.20
2018-04-06T09:36:13.353Z,8.20
2018-04-06T09:38:40.554Z,8.30
2018-04-06T09:41:06.754Z,8.40
2018-04-06T09:43:33.016Z,8.50
2018-04-06T09:45:59.253Z,8.40
2018-04-06T09:48:26.224Z,8.40
2018-04-06T09:50:52.445Z,8.40
2018-04-06T09:53:18.732Z,8.60
2018-04-06T09:55:44.926Z,8.70
2018-04-06T09:58:11.194Z,8.70
2018-04-06T10:00:37.425Z,8.80
2018-04-06T10:03:04.405Z,9.00
2018-04-06T10:05:30.668Z,9.00
2018-04-06T10:07:56.877Z,8.90
2018-04-06T10:10:23.096Z,8.90
2018-04-06T10:12:50.788Z,9.00
2018-04-06T10:15:16.954Z,9.10
2018-04-06T10:17:43.162Z,9.30
2018-04-06T10:20:09.426Z,9.10
2018-04-06T10:22:35.646Z,9.20
2018-04-06T10:25:08.557Z,9.20
2018-04-06T10:27:34.795Z,9.20
2018-04-06T10:30:01.048Z,9.40
2018-04-06T10:32:27.424Z,9.50
2018-04-06T10:34:54.345Z,9.70
2018-04-06T10:37:20.574Z,9.70
2018-04-06T10:39:46.842Z,9.70
2018-04-06T10:42:15.111Z,9.80
2018-04-06T10:44:41.370Z,9.70
2018-04-06T10:47:07.591Z,9.80
2018-04-06T10:49:33.753Z,9.80
2018-04-06T10:51:59.966Z,9.90
2018-04-06T10:54:26.145Z,9.90
2018-04-06T10:56:54.614Z,9.90
2018-04-06T10:59:24.269Z,9.90
2018-04-06T11:01:50.562Z,9.90
2018-04-06T11:04:17.527Z,10.00
2018-04-06T11:06:45.526Z,10.00
2018-04-06T11:09:11.761Z,10.20
2018-04-06T11:11:39.477Z,10.50
2018-04-06T11:14:05.677Z,10.50
2018-04-06T11:16:31.833Z,10.70
2018-04-06T11:18:58.077Z,10.50
2018-04-06T11:21:24.324Z,10.70
2018-04-06T11:23:50.554Z,10.80
2018-04-06T11:26:16.805Z,10.90
2018-04-06T11:28:43.050Z,11.10
2018-04-06T11:31:09.292Z,11.10
2018-04-06T11:33:36.289Z,11.30
2018-04-06T11:36:03.537Z,11.30
2018-04-06T11:38:29.750Z,11.50
2018-04-06T11:40:57.495Z,11.40
2018-04-06T11:43:23.677Z,11.20
2018-04-06T11:45:50.981Z,11.10
2018-04-06T11:48:17.177Z,11.30
2018-04-06T11:50:44.966Z,11.20
2018-04-06T11:53:11.910Z,11.20
2018-04-06T11:55:38.925Z,11.40
2018-04-06T11:58:05.122Z,11.40
2018-04-06T12:00:31.358Z,11.60
2018-04-06T12:02:57.538Z,11.70
2018-04-06T12:05:24.474Z,11.70
2018-04-06T12:07:52.622Z,11.80
2018-04-06T12:10:18.785Z,11.80
2018-04-06T12:12:45.073Z,11.90
2018-04-06T12:15:11.265Z,12.00
2018-04-06T12:17:37.443Z,12.10
2018-04-06T12:20:03.669Z,12.30
2018-04-06T12:22:30.959Z,12.50
2018-04-06T12:24:57.178Z,12.70
2018-04-06T12:27:25.301Z,13.00
2018-04-06T12:29:51.502Z,13.00
2018-04-06T12:32:18.998Z,13.40
2018-04-06T12:34:45.245Z,13.80
2018-04-06T12:37:11.462Z,15.00
2018-04-06T12:39:37.635Z,16.40
2018-04-06T12:42:03.876Z,18.30
2018-04-06T12:44:30.099Z,19.90
2018-04-06T12:46:56.226Z,20.90
2018-04-06T12:49:22.474Z,21.30
2018-04-06T12:51:48.706Z,21.80
2018-04-06T12:54:14.997Z,22.40
2018-04-06T12:56:41.390Z,23.00
2018-04-06T12:59:07.541Z,23.50
2018-04-06T13:01:34.424Z,23.50
2018-04-06T13:04:00.589Z,23.50
2018-04-06T13:06:26.720Z,23.00
2018-04-06T13:08:54.218Z,23.50
2018-04-06T13:11:20.359Z,23.20
2018-04-06T13:13:47.930Z,22.60
2018-04-06T13:16:17.088Z,22.70
2018-04-06T13:18:43.230Z,23.70
2018-04-06T13:21:09.374Z,24.40
2018-04-06T13:23:35.516Z,24.50
2018-04-06T13:26:01.697Z,24.10
2018-04-06T13:28:27.860Z,23.90
2018-04-06T13:30:54.073Z,24.10
2018-04-06T13:33:20.195Z,23.70
2018-04-06T13:35:46.405Z,23.40
2018-04-06T13:38:12.625Z,23.60
2018-04-06T13:40:39.621Z,24.00
2018-04-06T13:43:05.848Z,24.00
2018-04-06T13:45:32.097Z,25.10
2018-04-06T13:47:58.784Z,25.80
2018-04-06T13:50:24.991Z,25.30
2018-04-06T13:52:51.862Z,24.50
2018-04-06T13:55:19.589Z,24.50
2018-04-06T13:57:46.585Z,25.60
2018-04-06T14:00:13.049Z,25.50
2018-04-06T14:02:40.773Z,25.00
2018-04-06T14:05:06.937Z,24.30
2018-04-06T14:07:33.212Z,24.40
2018-04-06T14:09:59.422Z,24.20
2018-04-06T14:12:26.426Z,24.50
2018-04-06T14:14:52.630Z,24.50
2018-04-06T14:17:18.881Z,24.70
2018-04-06T14:19:45.105Z,24.60
2018-04-06T14:22:11.268Z,24.60
2018-04-06T14:24:37.497Z,24.00
2018-04-06T14:27:04.473Z,24.60
2018-04-06T14:29:30.773Z,24.50
2018-04-06T14:31:57.868Z,23.80
2018-04-06T14:34:24.130Z,23.80
2018-04-06T14:36:50.424Z,24.40
2018-04-06T14:39:16.598Z,24.10
2018-04-06T14:41:44.378Z,23.20
2018-04-06T14:44:11.333Z,24.00
2018-04-06T14:46:39.947Z,24.20
2018-04-06T14:49:06.172Z,24.20
2018-04-06T14:51:32.421Z,24.60
2018-04-06T14:53:58.667Z,25.10
2018-04-06T14:56:26.841Z,25.70
2018-04-06T14:58:53.089Z,25.90
2018-04-06T15:01:20.048Z,25.10
2018-04-06T15:03:47.053Z,23.90
2018-04-06T15:06:13.288Z,23.80
2018-04-06T15:08:39.541Z,23.10
2018-04-06T15:11:06.445Z,22.40
2018-04-06T15:13:32.609Z,22.40
2018-04-06T15:15:58.836Z,23.10
2018-04-06T15:18:25.806Z,23.40
2018-04-06T15:20:52.042Z,23.40
2018-04-06T15:23:19.977Z,23.20
2018-04-06T15:25:46.164Z,23.40
2018-04-06T15:28:12.428Z,23.60
2018-04-06T15:30:38.637Z,23.50
2018-04-06T15:33:05.965Z,23.60
2018-04-06T15:35:32.153Z,23.60
2018-04-06T15:37:59.144Z,23.90
2018-04-06T15:40:25.353Z,23.90
2018-04-06T15:42:51.627Z,24.10
2018-04-06T15:45:21.337Z,24.50
2018-04-06T15:47:47.576Z,24.50
2018-04-06T15:50:14.733Z,24.00
2018-04-06T15:52:41.722Z,23.60
2018-04-06T15:55:08.418Z,23.60
2018-04-06T15:57:34.705Z,23.40
2018-04-06T16:00:00.965Z,22.90
2018-04-06T16:02:27.378Z,22.80
2018-04-06T16:04:54.331Z,21.50
2018-04-06T16:07:22.555Z,21.50
2018-04-06T16:09:51.138Z,21.70
2018-04-06T16:12:17.397Z,21.70
2018-04-06T16:14:43.649Z,21.50
2018-04-06T16:17:11.306Z,20.50
2018-04-06T16:19:37.564Z,20.50
2018-04-06T16:22:04.938Z,20.10
2018-04-06T16:24:31.886Z,19.60
2018-04-06T16:26:59.200Z,19.60
2018-04-06T16:29:25.480Z,19.30
2018-04-06T16:31:51.729Z,19.60
2018-04-06T16:34:17.973Z,19.50
2018-04-06T16:36:44.177Z,19.60
2018-04-06T16:39:10.337Z,18.90
2018-04-06T16:41:36.582Z,19.40
2018-04-06T16:44:02.854Z,19.20
2018-04-06T16:46:29.058Z,19.20
2018-04-06T16:48:57.438Z,18.70
2018-04-06T16:51:24.455Z,18.60
2018-04-06T16:53:52.485Z,18.50
2018-04-06T16:56:18.644Z,18.00
2018-04-06T16:58:48.029Z,17.50
2018-04-06T17:01:14.234Z,17.50
2018-04-06T17:03:40.474Z,17.40
2018-04-06T17:06:07.510Z,17.20
2018-04-06T17:08:33.778Z,16.50
2018-04-06T17:11:01.618Z,16.00
2018-04-06T17:13:27.864Z,15.70
2018-04-06T17:15:57.904Z,15.10
2018-04-06T17:18:24.597Z,15.10
2018-04-06T17:20:50.820Z,14.80
2018-04-06T17:23:17.037Z,14.50
2018-04-06T17:25:43.302Z,14.20
2018-04-06T17:28:09.517Z,14.00
2018-04-06T17:30:35.697Z,13.90
2018-04-06T17:33:03.606Z,13.60
2018-04-06T17:35:30.113Z,13.50
2018-04-06T17:37:57.077Z,13.10
2018-04-06T17:40:24.219Z,13.00
2018-04-06T17:42:51.388Z,12.70
2018-04-06T17:45:20.413Z,12.70
2018-04-06T17:47:47.444Z,12.50
2018-04-06T17:50:13.750Z,12.30
2018-04-06T17:52:40.387Z,12.20
2018-04-06T17:55:06.596Z,12.10
2018-04-06T17:57:33.911Z,11.80
2018-04-06T18:00:01.143Z,11.70
2018-04-06T18:02:27.387Z,11.70
2018-04-06T18:04:53.702Z,11.60
2018-04-06T18:07:19.910Z,11.50
2018-04-06T18:09:46.102Z,11.30
2018-04-06T18:12:14.305Z,11.10
2018-04-06T18:14:40.527Z,11.10
2018-04-06T18:17:08.306Z,11.00
2018-04-06T18:19:34.454Z,10.90
2018-04-06T18:22:01.893Z,10.80
2018-04-06T18:24:28.055Z,10.70
2018-04-06T18:26:54.325Z,10.70
2018-04-06T18:29:21.274Z,10.60
2018-04-06T18:31:47.543Z,10.60
2018-04-06T18:34:13.764Z,10.50
2018-04-06T18:36:40.734Z,10.40
2018-04-06T18:39:07.970Z,10.40
2018-04-06T18:41:34.133Z,10.30
2018-04-06T18:44:01.122Z,10.20
2018-04-06T18:46:27.312Z,10.10
2018-04-06T18:48:54.291Z,10.10
2018-04-06T18:51:20.426Z,10.00
2018-04-06T18:53:48.177Z,10.00
2018-04-06T18:56:14.347Z,10.00
2018-04-06T18:58:40.615Z,9.90
2018-04-06T19:01:07.554Z,9.80
2018-04-06T19:03:34.514Z,9.70
2018-04-06T19:06:00.744Z,9.70
2018-04-06T19:08:26.990Z,9.60
2018-04-06T19:10:53.224Z,9.70
2018-04-06T19:13:19.505Z,9.60
2018-04-06T19:15:46.430Z,9.40
2018-04-06T19:18:12.698Z,9.30
2018-04-06T19:20:38.900Z,9.30
2018-04-06T19:23:05.099Z,9.30
2018-04-06T19:25:31.302Z,9.20
2018-04-06T19:27:57.584Z,9.20
2018-04-06T19:30:23.780Z,9.20
2018-04-06T19:32:50.025Z,9.10
2018-04-06T19:35:17.725Z,9.00
2018-04-06T19:37:45.681Z,9.00
2018-04-06T19:40:13.785Z,9.00
2018-04-06T19:42:40.014Z,9.00
2018-04-06T19:45:06.349Z,9.00
2018-04-06T19:47:32.494Z,8.90
2018-04-06T19:50:00.328Z,8.90
2018-04-06T19:52:26.503Z,8.90
2018-04-06T19:54:54.602Z,8.80
2018-04-06T19:57:21.564Z,8.70
2018-04-06T19:59:47.820Z,8.70
2018-04-06T20:02:14.048Z,8.70
2018-04-06T20:04:40.309Z,8.60
2018-04-06T20:07:06.529Z,8.60
2018-04-06T20:09:32.799Z,8.60
2018-04-06T20:11:59.778Z,8.50
2018-04-06T20:14:26.014Z,8.50
2018-04-06T20:16:52.209Z,8.50
2018-04-06T20:19:18.350Z,8.50
2018-04-06T20:21:45.557Z,8.40
2018-04-06T20:24:11.772Z,8.30
2018-04-06T20:26:39.658Z,8.30
2018-04-06T20:29:05.895Z,8.30
2018-04-06T20:31:32.884Z,8.20
2018-04-06T20:33:59.092Z,8.20
2018-04-06T20:36:25.358Z,8.20
2018-04-06T20:38:51.571Z,8.10
2018-04-06T20:41:17.747Z,8.10
2018-04-06T20:43:44.692Z,8.10
2018-04-06T20:46:11.665Z,8.10
2018-04-06T20:48:37.880Z,8.10
2018-04-06T20:51:05.101Z,7.90
2018-04-06T20:53:32.105Z,7.90
2018-04-06T20:55:58.257Z,7.80
2018-04-06T20:58:24.510Z,7.80
2018-04-06T21:00:50.750Z,7.80
2018-04-06T21:03:17.722Z,7.60
2018-04-06T21:05:43.954Z,7.60
2018-04-06T21:08:10.202Z,7.60
2018-04-06T21:10:36.420Z,7.60
2018-04-06T21:13:02.597Z,7.60
2018-04-06T21:15:28.822Z,7.50
2018-04-06T21:17:55.069Z,7.50
2018-04-06T21:20:22.012Z,7.50
2018-04-06T21:22:48.997Z,7.50
2018-04-06T21:25:15.205Z,7.50
2018-04-06T21:27:41.465Z,7.50
2018-04-06T21:30:07.716Z,7.60
2018-04-06T21:32:33.986Z,7.60
2018-04-06T21:35:00.180Z,7.60
2018-04-06T21:37:26.445Z,7.60
2018-04-06T21:39:53.402Z,7.60
2018-04-06T21:42:19.654Z,7.60
2018-04-06T21:44:45.885Z,7.60
2018-04-06T21:47:12.121Z,7.60
2018-04-06T21:49:38.373Z,7.60
2018-04-06T21:52:04.593Z,7.60
2018-04-06T21:54:32.732Z,7.70
2018-04-06T21:56:58.945Z,7.60
2018-04-06T21:59:26.333Z,7.60
2018-04-06T22:01:52.472Z,7.50
2018-04-06T22:04:19.769Z,7.50
2018-04-06T22:06:45.977Z,7.50
2018-04-06T22:09:12.963Z,7.50
2018-04-06T22:11:39.141Z,7.50
2018-04-06T22:14:05.438Z,7.50
2018-04-06T22:16:31.636Z,7.50
2018-04-06T22:18:58.385Z,7.50
2018-04-06T22:21:24.621Z,7.40
2018-04-06T22:23:50.789Z,7.40
2018-04-06T22:26:17.013Z,7.40
2018-04-06T22:28:43.289Z,7.40
2018-04-06T22:31:09.486Z,7.40
2018-04-06T22:33:36.445Z,7.40
2018-04-06T22:36:03.447Z,7.40
2018-04-06T22:38:29.651Z,7.30
2018-04-06T22:40:56.977Z,7.30
2018-04-06T22:43:23.199Z,7.30
2018-04-06T22:45:50.145Z,7.10
2018-04-06T22:48:17.114Z,7.00
2018-04-06T22:50:45.274Z,7.00
2018-04-06T22:53:11.513Z,7.00
2018-04-06T22:55:39.281Z,7.00
2018-04-06T22:58:05.432Z,7.00
2018-04-06T23:00:31.705Z,7.00
2018-04-06T23:02:58.626Z,7.00
2018-04-06T23:05:24.785Z,6.90
2018-04-06T23:07:51.758Z,6.90
2018-04-06T23:10:18.070Z,6.90
2018-04-06T23:12:45.655Z,6.90
2018-04-06T23:15:11.957Z,6.90
2018-04-06T23:17:38.884Z,6.80
2018-04-06T23:20:05.935Z,6.90
2018-04-06T23:22:34.341Z,6.90
2018-04-06T23:25:00.654Z,6.80
2018-04-06T23:27:29.723Z,6.90
2018-04-06T23:29:55.952Z,6.90
2018-04-06T23:32:22.281Z,6.90
2018-04-06T23:34:48.536Z,6.90
2018-04-06T23:37:16.702Z,6.90
2018-04-06T23:39:43.731Z,6.90
2018-04-06T23:42:09.982Z,6.90
2018-04-06T23:44:37.002Z,6.90
2018-04-06T23:47:04.273Z,6.90
2018-04-06T23:49:31.206Z,6.80
2018-04-06T23:51:57.490Z,6.80
2018-04-06T23:54:23.659Z,6.90
2018-04-06T23:56:50.046Z,6.80
2018-04-06T23:59:16.329Z,6.80
